FW0151 Weather Reports


Display with metric or nautical units.
time (UTC)temp
F
wind
direction
speed
MPH
gust
MPH
rain 1hr
in
rain 24hr
in
rain mn
in
humidity
%
barometer
mb
20190819193515 60 225 6.0 9.0 0.00 0.00 0.00 79 1017.9
20190819192515 60 225 3.0 5.0 0.00 0.00 0.00 78 1017.8
20190819191515 60 247 5.0 8.0 0.00 0.00 0.00 77 1017.8
20190819190515 61 247 5.0 9.0 0.00 0.00 0.00 76 1017.6
20190819185516 61 247 6.0 10.0 0.00 0.00 0.00 75 1017.5
20190819184515 62 247 8.0 15.0 0.00 0.00 0.00 73 1017.4
20190819183516 63 247 10.0 16.0 0.00 0.00 0.00 72 1017.2
20190819182515 63 247 9.0 12.0 0.00 0.00 0.00 70 1017.2
20190819181516 64 247 10.0 16.0 0.00 0.00 0.00 69 1017.1
20190819180515 64 247 9.0 14.0 0.00 0.00 0.00 67 1017.0
20190819175515 64 247 9.0 13.0 0.00 0.00 0.00 65 1017.1
20190819174515 65 247 12.0 16.0 0.00 0.00 0.00 65 1017.0
20190819173516 65 247 13.0 19.0 0.00 0.00 0.00 64 1017.0
20190819172515 65 247 15.0 24.0 0.00 0.00 0.00 62 1017.0
20190819171515 66 247 12.0 17.0 0.00 0.00 0.00 64 1016.9
20190819170515 66 247 14.0 21.0 0.00 0.00 0.00 62 1016.9
20190819165515 66 247 14.0 21.0 0.00 0.00 0.00 62 1016.8
20190819164515 66 247 14.0 21.0 0.00 0.00 0.00 62 1016.8
20190819163516 67 247 14.0 22.0 0.00 0.00 0.00 66 1016.5
20190819162515 67 247 13.0 17.0 0.00 0.00 0.00 65 1016.5
20190819161515 68 247 12.0 19.0 0.00 0.00 0.00 64 1016.5
20190819160515 68 247 14.0 22.0 0.00 0.00 0.00 62 1016.6
20190819155515 67 270 14.0 21.0 0.00 0.00 0.00 63 1016.5
20190819154515 68 247 15.0 19.0 0.00 0.00 0.00 64 1016.7
20190819153516 67 270 11.0 16.0 0.00 0.00 0.00 65 1016.5
20190819152515 69 247 14.0 22.0 0.00 0.00 0.00 63 1016.3
20190819151515 69 247 14.0 21.0 0.00 0.00 0.00 63 1016.3
20190819150516 69 247 10.0 18.0 0.00 0.00 0.00 64 1016.2
20190819145515 68 247 15.0 21.0 0.00 0.00 0.00 61 1016.3
20190819144516 68 247 12.0 16.0 0.00 0.00 0.00 62 1016.3
20190819143516 69 247 15.0 23.0 0.00 0.00 0.00 58 1016.2
20190819142516 69 247 14.0 20.0 0.00 0.00 0.00 61 1016.2
20190819141515 69 247 15.0 24.0 0.00 0.00 0.00 60 1016.0
20190819140515 69 247 14.0 24.0 0.00 0.00 0.00 60 1016.1
20190819135516 69 247 13.0 18.0 0.00 0.00 0.00 62 1016.0
20190819134516 69 270 12.0 17.0 0.00 0.00 0.00 60 1015.9
20190819133516 69 247 11.0 17.0 0.00 0.00 0.00 61 1015.9
20190819132515 69 247 12.0 17.0 0.00 0.00 0.00 65 1015.9
20190819131516 69 247 13.0 18.0 0.00 0.00 0.00 61 1015.8
20190819130515 69 247 14.0 24.0 0.00 0.00 0.00 61 1015.8
20190819125515 69 225 14.0 20.0 0.00 0.00 0.00 61 1015.7
20190819124516 68 225 14.0 19.0 0.00 0.00 0.00 65 1015.7
20190819123516 67 247 9.0 15.0 0.00 0.00 0.00 73 1015.6
20190819122516 66 202 11.0 15.0 0.00 0.00 0.00 73 1015.7
20190819121516 67 225 10.0 14.0 0.00 0.00 0.00 71 1015.6
20190819120515 66 225 13.0 19.0 0.00 0.00 0.00 67 1015.6
20190819115515 66 247 14.0 19.0 0.00 0.00 0.00 64 1015.5
20190819114516 67 247 14.0 23.0 0.00 0.00 0.00 64 1015.4
20190819113516 67 247 13.0 17.0 0.00 0.00 0.00 69 1015.3
20190819112516 67 247 11.0 20.0 0.00 0.00 0.00 68 1015.2
20190819111516 68 247 11.0 15.0 0.00 0.00 0.00 68 1015.0
20190819110516 68 247 9.0 15.0 0.00 0.00 0.00 68 1015.0
20190819105515 66 247 9.0 12.0 0.00 0.00 0.00 72 1014.9
20190819104516 67 247 9.0 12.0 0.00 0.00 0.00 73 1014.9
20190819103515 66 247 10.0 14.0 0.00 0.00 0.00 77 1014.8
20190819102516 65 225 12.0 16.0 0.00 0.00 0.00 81 1014.9
20190819101516 65 247 13.0 17.0 0.00 0.00 0.00 78 1014.8
20190819100516 64 225 12.0 18.0 0.00 0.00 0.00 82 1014.7
20190819095515 64 225 10.0 15.0 0.00 0.00 0.00 85 1014.6
20190819094516 63 225 10.0 14.0 0.00 0.00 0.00 89 1014.7
20190819093515 62 225 8.0 14.0 0.00 0.00 0.00 89 1014.7
20190819092516 62 225 9.0 13.0 0.00 0.00 0.00 87 1014.7
20190819091517 63 225 12.0 17.0 0.00 0.00 0.00 84 1014.5
20190819090516 64 225 13.0 18.0 0.00 0.00 0.00 80 1014.3
20190819085515 64 225 12.0 17.0 0.00 0.00 0.00 80 1014.3
20190819084516 63 225 14.0 18.0 0.00 0.00 0.00 81 1014.3
20190819083516 64 225 12.0 16.0 0.00 0.00 0.00 82 1014.1
20190819082516 64 225 13.0 18.0 0.00 0.00 0.00 82 1014.0
20190819081516 63 225 11.0 17.0 0.00 0.00 0.00 84 1013.9
20190819080516 63 225 11.0 15.0 0.00 0.00 0.00 86 1013.7
20190819075516 63 225 10.0 17.0 0.00 0.00 0.00 87 1013.7
20190819074516 62 225 11.0 15.0 0.00 0.00 0.00 88 1013.6
20190819073515 61 225 10.0 15.0 0.00 0.00 0.00 89 1013.5
20190819072516 61 225 9.0 12.0 0.00 0.00 0.00 89 1013.4
20190819071516 60 225 9.0 13.0 0.00 0.00 0.00 91 1013.5
20190819070516 59 225 8.0 12.0 0.00 0.00 0.00 92 1013.4
20190819065516 59 225 9.0 14.0 0.00 0.00 0.00 94 1013.5
20190819064517 58 225 9.0 15.0 0.00 0.00 0.00 94 1013.4
20190819063516 57 225 6.0 11.0 0.00 0.00 0.00 96 1013.5
20190819062516 57 202 6.0 9.0 0.00 0.00 0.00 96 1013.4
20190819061516 56 202 5.0 8.0 0.00 0.00 0.00 96 1013.2
20190819060517 56 202 6.0 8.0 0.00 0.00 0.00 96 1013.2
20190819055516 55 202 6.0 10.0 0.00 0.00 0.00 97 1013.2
20190819054516 55 202 6.0 9.0 0.00 0.00 0.00 97 1013.1
20190819053516 54 202 6.0 8.0 0.00 0.01 0.00 97 1013.0
20190819052516 54 202 6.0 8.0 0.00 0.01 0.00 97 1013.0
20190819051516 53 202 6.0 8.0 0.00 0.01 0.00 97 1012.9
20190819050515 53 202 5.0 7.0 0.00 0.01 0.00 97 1012.9
20190819045515 53 202 5.0 6.0 0.00 0.02 0.00 97 1012.7
20190819044516 53 225 4.0 7.0 0.00 0.03 0.00 98 1012.6
20190819043515 53 202 3.0 5.0 0.00 0.03 0.00 97 1012.5
20190819042516 52 180 2.0 3.0 0.00 0.05 0.00 97 1012.5
20190819041516 53 202 1.0 2.0 0.00 0.05 0.00 96 1012.5
20190819040516 53 202 3.0 5.0 0.00 0.06 0.00 97 1012.4
20190819035516 53 202 3.0 4.0 0.00 0.06 0.00 97 1012.4
20190819034516 53 202 2.0 3.0 0.00 0.07 0.00 97 1012.3
20190819033516 53 202 1.0 3.0 0.00 0.08 0.00 97 1012.2
20190819032516 53 180 1.0 1.0 0.00 0.11 0.00 96 1012.1
20190819031516 54 202 2.0 4.0 0.00 0.11 0.00 97 1011.9
20190819030516 54 202 2.0 4.0 0.00 0.12 0.00 97 1011.9
20190819025516 54 202 3.0 6.0 0.00 0.14 0.00 97 1011.7
20190819024516 54 202 3.0 5.0 0.00 0.14 0.00 97 1011.8
20190819023515 54 202 4.0 6.0 0.00 0.14 0.00 97 1011.8
20190819022519 54 202 4.0 7.0 0.00 0.14 0.00 97 1011.7
20190819021516 54 202 3.0 4.0 0.00 0.14 0.00 96 1011.7
20190819020516 54 180 2.0 4.0 0.00 0.14 0.00 96 1011.7
20190819015516 54 180 3.0 6.0 0.00 0.14 0.00 96 1011.7
20190819014516 54 202 3.0 5.0 0.00 0.14 0.00 96 1011.7
20190819013516 54 202 4.0 7.0 0.00 0.14 0.00 96 1011.6
20190819012516 54 202 4.0 6.0 0.00 0.14 0.00 96 1011.7
20190819011516 54 202 3.0 5.0 0.00 0.15 0.00 95 1011.7
20190819010516 54 202 3.0 5.0 0.00 0.15 0.00 95 1011.6
20190819005516 54 225 3.0 5.0 0.00 0.16 0.00 95 1011.5
20190819004516 55 202 3.0 5.0 0.00 0.16 0.00 95 1011.5
20190819003516 55 202 4.0 6.0 0.00 0.16 0.00 95 1011.5
20190819002516 55 202 3.0 5.0 0.00 0.16 0.00 94 1011.4
20190819001516 55 202 3.0 4.0 0.00 0.17 0.00 94 1011.3
20190819000518 55 202 3.0 4.0 0.00 0.17 0.00 94 1011.3
20190818235516 55 202 2.0 4.0 0.00 0.17 0.00 93 1011.2
20190818234516 55 202 2.0 4.0 0.00 0.17 0.00 92 1011.1
20190818233516 56 225 4.0 7.0 0.00 0.18 0.00 93 1011.0
20190818232516 56 225 4.0 7.0 0.00 0.18 0.00 92 1011.0
20190818231516 56 225 5.0 7.0 0.00 0.18 0.00 92 1011.0
20190818230516 56 225 5.0 7.0 0.00 0.18 0.00 92 1010.9
20190818225516 56 225 3.0 5.0 0.00 0.18 0.00 91 1010.9
20190818224516 57 225 4.0 7.0 0.00 0.18 0.00 91 1010.8
20190818223516 57 225 3.0 6.0 0.00 0.18 0.00 90 1010.7
20190818222516 57 225 4.0 7.0 0.00 0.18 0.00 90 1010.6
20190818221516 58 225 6.0 9.0 0.00 0.18 0.00 90 1010.5
20190818220516 58 247 6.0 10.0 0.00 0.18 0.00 90 1010.5
20190818215516 57 225 5.0 9.0 0.00 0.18 0.18 90 1010.3
20190818214517 57 225 4.0 5.0 0.00 0.18 0.18 90 1010.2
20190818213516 58 225 5.0 7.0 0.00 0.18 0.18 89 1010.2
20190818212516 58 225 6.0 8.0 0.00 0.18 0.18 88 1010.0
20190818211516 58 225 7.0 11.0 0.00 0.18 0.18 88 1009.9
20190818210516 58 225 8.0 11.0 0.00 0.18 0.18 88 1009.8
20190818205516 58 225 5.0 8.0 0.00 0.18 0.18 88 1009.8
20190818204516 58 225 6.0 10.0 0.00 0.18 0.18 88 1009.7
20190818203516 59 247 7.0 11.0 0.00 0.18 0.18 88 1009.7
20190818202516 59 247 6.0 10.0 0.00 0.18 0.18 87 1009.6
20190818201516 59 225 8.0 12.0 0.00 0.18 0.18 87 1009.5
20190818200516 59 225 8.0 12.0 0.00 0.18 0.18 86 1009.4
20190818195516 59 225 6.0 8.0 0.00 0.18 0.18 86 1009.4
20190818194516 59 225 6.0 9.0 0.00 0.18 0.18 85 1009.3